createdAt,value
2022-10-22T00:00:25.263Z,8.47
2022-10-22T00:05:47.845Z,8.48
2022-10-22T00:10:50.247Z,8.52
2022-10-22T00:15:52.781Z,8.53
2022-10-22T00:20:55.468Z,8.52
2022-10-22T00:25:58.188Z,8.49
2022-10-22T00:31:00.878Z,8.47
2022-10-22T00:36:03.402Z,8.50
2022-10-22T00:41:06.109Z,8.56
2022-10-22T00:46:08.535Z,8.61
2022-10-22T00:51:11.041Z,8.61
2022-10-22T00:56:13.946Z,8.59
2022-10-22T01:01:18.165Z,8.56
2022-10-22T01:06:30.625Z,8.54
2022-10-22T01:11:34.983Z,8.56
2022-10-22T01:16:44.385Z,8.60
2022-10-22T01:21:50.608Z,8.61
2022-10-22T01:26:58.550Z,8.60
2022-10-22T01:32:03.889Z,8.61
2022-10-22T01:37:06.691Z,8.65
2022-10-22T01:42:09.081Z,8.69
2022-10-22T01:47:15.914Z,8.73
2022-10-22T01:52:26.910Z,8.72
2022-10-22T01:57:29.745Z,8.72
2022-10-22T02:02:35.117Z,8.74
2022-10-22T02:07:41.355Z,8.74
2022-10-22T02:12:48.722Z,8.74
2022-10-22T02:17:52.471Z,8.71
2022-10-22T02:22:55.917Z,8.69
2022-10-22T02:28:01.328Z,8.69
2022-10-22T02:33:23.070Z,8.70
2022-10-22T02:38:26.411Z,8.68
2022-10-22T02:43:31.352Z,8.66
2022-10-22T02:48:33.749Z,8.62
2022-10-22T02:53:36.181Z,8.65
2022-10-22T02:58:38.578Z,8.70
2022-10-22T03:03:40.974Z,8.71
2022-10-22T03:08:43.496Z,8.69
2022-10-22T03:13:45.904Z,8.68
2022-10-22T03:18:48.306Z,8.71
2022-10-22T03:23:51.615Z,8.74
2022-10-22T03:28:54.402Z,8.77
2022-10-22T03:33:56.818Z,8.76
2022-10-22T03:38:59.799Z,8.75
2022-10-22T03:44:02.907Z,8.79
2022-10-22T03:49:05.577Z,8.82
2022-10-22T03:54:10.242Z,8.84
2022-10-22T03:59:13.136Z,8.85
2022-10-22T04:04:15.614Z,8.84
2022-10-22T04:09:18.136Z,8.85
2022-10-22T04:14:20.627Z,8.89
2022-10-22T04:19:23.142Z,8.90
2022-10-22T04:24:25.739Z,8.88
2022-10-22T04:29:28.377Z,8.88
2022-10-22T04:34:31.311Z,8.89
2022-10-22T04:39:33.807Z,8.91
2022-10-22T04:44:36.300Z,8.93
2022-10-22T04:49:38.785Z,8.95
2022-10-22T04:54:41.238Z,8.96
2022-10-22T04:59:43.783Z,8.98
2022-10-22T05:04:46.205Z,9.00
2022-10-22T05:09:48.960Z,9.02
2022-10-22T05:14:53.687Z,9.05
2022-10-22T05:19:56.067Z,9.06
2022-10-22T05:24:58.450Z,9.10
2022-10-22T05:30:00.926Z,9.14
2022-10-22T05:35:03.431Z,9.19
2022-10-22T05:40:19.081Z,9.23
2022-10-22T05:45:28.741Z,9.25
2022-10-22T05:50:31.395Z,9.30
2022-10-22T05:55:37.410Z,9.39
2022-10-22T06:00:39.935Z,9.46
2022-10-22T06:05:42.370Z,9.50
2022-10-22T06:10:44.881Z,9.56
2022-10-22T06:15:47.308Z,9.63
2022-10-22T06:20:49.925Z,9.72
2022-10-22T06:25:55.490Z,9.82
2022-10-22T06:31:01.322Z,9.90
2022-10-22T06:36:07.797Z,10.05
2022-10-22T06:41:11.791Z,10.26
2022-10-22T06:46:19.193Z,10.48
2022-10-22T06:51:23.128Z,10.59
2022-10-22T06:56:27.512Z,10.65
2022-10-22T07:01:33.686Z,10.73
2022-10-22T07:06:36.629Z,10.83
2022-10-22T07:11:40.497Z,10.97
2022-10-22T07:16:43.151Z,11.11
2022-10-22T07:21:47.762Z,11.25
2022-10-22T07:26:50.466Z,11.41
2022-10-22T07:31:53.032Z,11.54
2022-10-22T07:36:57.202Z,11.67
2022-10-22T07:41:59.778Z,11.75
2022-10-22T07:47:02.186Z,11.75
2022-10-22T07:52:04.750Z,11.80
2022-10-22T07:57:07.125Z,11.89
2022-10-22T08:02:10.339Z,11.91
2022-10-22T08:07:13.986Z,11.90
2022-10-22T08:12:16.882Z,12.07
2022-10-22T08:17:19.329Z,12.30
2022-10-22T08:22:21.772Z,12.46
2022-10-22T08:27:24.163Z,12.59
2022-10-22T08:37:29.101Z,12.47
2022-10-22T08:42:41.161Z,12.38
2022-10-22T08:47:46.663Z,12.30
2022-10-22T08:52:51.763Z,12.20
2022-10-22T08:58:00.864Z,12.10
2022-10-22T09:03:03.243Z,12.07
2022-10-22T09:08:09.806Z,12.11
2022-10-22T09:13:13.807Z,12.29
2022-10-22T09:18:21.238Z,12.39
2022-10-22T09:23:23.661Z,12.40
2022-10-22T09:28:28.757Z,12.62
2022-10-22T09:33:32.776Z,12.76
2022-10-22T09:38:40.352Z,12.58
2022-10-22T09:43:46.470Z,12.33
2022-10-22T09:48:52.031Z,12.19
2022-10-22T09:53:57.143Z,12.27
2022-10-22T09:58:59.584Z,12.50
2022-10-22T10:04:09.377Z,12.69
2022-10-22T10:09:15.864Z,12.76
2022-10-22T10:14:27.200Z,12.78
2022-10-22T10:19:49.993Z,12.95
2022-10-22T10:24:57.644Z,13.09
2022-10-22T10:30:03.213Z,13.21
2022-10-22T10:35:07.023Z,13.33
2022-10-22T10:40:18.816Z,13.47
2022-10-22T10:45:24.244Z,13.68
2022-10-22T10:50:30.982Z,13.61
2022-10-22T10:55:36.403Z,13.45
2022-10-22T11:00:42.608Z,13.30
2022-10-22T11:05:46.006Z,13.09
2022-10-22T11:10:52.807Z,12.99
2022-10-22T11:15:58.152Z,12.95
2022-10-22T11:21:03.641Z,12.90
2022-10-22T11:26:11.925Z,12.87
2022-10-22T11:31:16.159Z,12.83
2022-10-22T11:36:22.534Z,12.92
2022-10-22T11:41:27.517Z,13.01
2022-10-22T11:46:32.972Z,13.07
2022-10-22T11:51:36.635Z,13.10
2022-10-22T11:56:39.329Z,13.07
2022-10-22T12:01:42.775Z,12.97
2022-10-22T12:06:48.124Z,12.90
2022-10-22T12:11:50.870Z,12.83
2022-10-22T12:16:57.733Z,12.82
2022-10-22T12:22:20.610Z,12.82
2022-10-22T12:27:26.894Z,12.80
2022-10-22T12:32:32.291Z,12.88
2022-10-22T12:37:36.266Z,13.00
2022-10-22T12:42:38.716Z,13.05
2022-10-22T12:47:45.154Z,13.08
2022-10-22T12:52:48.187Z,13.15
2022-10-22T12:57:50.677Z,13.21
2022-10-22T13:02:53.633Z,13.24
2022-10-22T13:07:58.974Z,13.20
2022-10-22T13:13:03.980Z,13.09
2022-10-22T13:18:09.467Z,12.99
2022-10-22T13:23:14.877Z,12.97
2022-10-22T13:28:20.284Z,12.97
2022-10-22T13:33:26.353Z,12.93
2022-10-22T13:38:29.100Z,12.90
2022-10-22T13:43:32.059Z,12.87
2022-10-22T13:48:34.442Z,12.90
2022-10-22T13:53:36.879Z,12.93
2022-10-22T13:58:39.316Z,12.97
2022-10-22T14:03:42.029Z,12.98
2022-10-22T14:08:45.973Z,12.99
2022-10-22T14:13:48.528Z,12.96
2022-10-22T14:18:51.415Z,12.92
2022-10-22T14:23:54.442Z,12.86
2022-10-22T14:29:09.404Z,12.82
2022-10-22T14:34:14.576Z,12.87
2022-10-22T14:39:18.509Z,12.93
2022-10-22T14:44:20.938Z,12.97
2022-10-22T14:49:23.363Z,13.00
2022-10-22T14:54:25.894Z,13.02
2022-10-22T14:59:28.546Z,13.00
2022-10-22T15:04:33.492Z,12.95
2022-10-22T15:09:35.929Z,12.93
2022-10-22T15:14:38.383Z,12.92
2022-10-22T15:19:40.827Z,12.94
2022-10-22T15:24:44.713Z,12.96
2022-10-22T15:29:47.127Z,12.96
2022-10-22T15:34:52.139Z,12.99
2022-10-22T15:39:54.582Z,13.01
2022-10-22T15:44:57.944Z,13.03
2022-10-22T15:50:00.465Z,13.01
2022-10-22T15:55:06.822Z,12.95
2022-10-22T16:00:09.770Z,12.89
2022-10-22T16:05:12.399Z,12.85
2022-10-22T16:10:14.841Z,12.82
2022-10-22T16:15:17.293Z,12.82
2022-10-22T16:20:19.944Z,12.84
2022-10-22T16:25:22.502Z,12.82
2022-10-22T16:30:24.933Z,12.80
2022-10-22T16:35:27.747Z,12.80
2022-10-22T16:40:30.225Z,12.77
2022-10-22T16:45:32.777Z,12.75
2022-10-22T16:50:40.969Z,12.78
2022-10-22T16:55:43.699Z,12.81
2022-10-22T17:00:48.192Z,12.83
2022-10-22T17:05:53.434Z,12.89
2022-10-22T17:10:55.833Z,12.93
2022-10-22T17:16:03.627Z,12.97
2022-10-22T17:21:06.673Z,12.99
2022-10-22T17:26:12.981Z,13.01
2022-10-22T17:31:16.591Z,13.03
2022-10-22T17:36:20.062Z,13.03
2022-10-22T17:41:24.483Z,13.02
2022-10-22T17:46:28.003Z,13.01
2022-10-22T17:51:31.383Z,13.01
2022-10-22T17:56:34.500Z,13.01
2022-10-22T18:01:40.183Z,13.01
2022-10-22T18:06:42.759Z,13.02
2022-10-22T18:11:47.381Z,13.03
2022-10-22T18:16:50.228Z,13.03
2022-10-22T18:21:53.054Z,13.04
2022-10-22T18:26:55.567Z,13.04
2022-10-22T18:31:58.209Z,13.05
2022-10-22T18:37:00.655Z,13.03
2022-10-22T18:42:06.377Z,13.03
2022-10-22T18:47:11.925Z,13.05
2022-10-22T18:52:14.391Z,13.07
2022-10-22T18:57:16.935Z,13.11
2022-10-22T19:02:19.374Z,13.13
2022-10-22T19:07:21.816Z,13.16
2022-10-22T19:12:24.277Z,13.14
2022-10-22T19:17:29.560Z,13.18
2022-10-22T19:22:32.348Z,13.20
2022-10-22T19:27:39.419Z,13.22
2022-10-22T19:32:42.474Z,13.24
2022-10-22T19:37:48.291Z,13.26
2022-10-22T19:42:51.367Z,13.25
2022-10-22T19:47:53.825Z,13.24
2022-10-22T19:52:56.254Z,13.23
2022-10-22T19:57:58.676Z,13.24
2022-10-22T20:03:01.093Z,13.26
2022-10-22T20:08:06.070Z,13.27
2022-10-22T20:13:08.634Z,13.28
2022-10-22T20:18:11.254Z,13.32
2022-10-22T20:23:13.709Z,13.33
2022-10-22T20:28:16.346Z,13.37
2022-10-22T20:33:18.749Z,13.41
2022-10-22T20:38:21.133Z,13.43
2022-10-22T20:43:23.559Z,13.43
2022-10-22T20:48:29.362Z,13.45
2022-10-22T20:53:33.967Z,13.48
2022-10-22T20:58:37.299Z,13.50
2022-10-22T21:03:39.738Z,13.52
2022-10-22T21:08:42.323Z,13.52
2022-10-22T21:13:45.069Z,13.51
2022-10-22T21:18:48.298Z,13.49
2022-10-22T21:23:51.362Z,13.48
2022-10-22T21:28:53.774Z,13.47
2022-10-22T21:33:56.258Z,13.46
2022-10-22T21:38:58.713Z,13.46
2022-10-22T21:44:01.139Z,13.47
2022-10-22T21:49:04.069Z,13.47
2022-10-22T21:54:06.873Z,13.45
2022-10-22T21:59:09.464Z,13.45
2022-10-22T22:04:11.922Z,13.45
2022-10-22T22:09:14.563Z,13.46
2022-10-22T22:14:17.109Z,13.45
2022-10-22T22:19:19.516Z,13.48
2022-10-22T22:24:22.119Z,13.50
2022-10-22T22:29:24.524Z,13.48
2022-10-22T22:34:27.021Z,13.47
2022-10-22T22:39:29.488Z,13.51
2022-10-22T22:44:32.012Z,13.51
2022-10-22T22:49:35.653Z,13.51
2022-10-22T22:54:38.204Z,13.49
2022-10-22T22:59:41.239Z,13.46
2022-10-22T23:04:43.645Z,13.41
2022-10-22T23:09:47.157Z,13.39
2022-10-22T23:14:51.069Z,13.37
2022-10-22T23:19:54.064Z,13.33
2022-10-22T23:24:56.655Z,13.32
2022-10-22T23:29:59.092Z,13.33
2022-10-22T23:35:01.626Z,13.36
2022-10-22T23:40:04.496Z,13.36
2022-10-22T23:45:07.137Z,13.35
2022-10-22T23:50:09.627Z,13.35
2022-10-22T23:55:14.268Z,13.33
